Neuburg — 5BQJ2 — position and weather

sailwx.info

Track history (hours):
 
Tides and Currents Weather Stations Pressure Air Temp Water Temp Dewpoint Dewpoint Depression Visibility Wind Speed Wind Dir Waves Ship Positions

Neuburg

Last reported at 2016-May-30 03:33 UTC. Time now 2016-May-30 16:28 UTC.
Position N 38°02' W 000°23'.

Length 142 m; draft 6.2 m.

Type: Cargo ship. MMSI: 212740000.

Date/timePositionNaut miles runAvg speedWind from/ knotsBaromVisibWave heightAir tempDewpointWater temp
2016-May-30 03:33N 38°02' W 000°23'1515.0
2016-May-30 02:33N 37°47' W 000°27'1615.7
2016-May-30 01:33N 37°32' W 000°32'1616.1
2016-May-30 00:33N 37°21' W 000°47'1616.0
2016-May-29 23:33N 37°10' W 001°02'21316.0
2016-May-29 10:15N 35°60' W 005°12'1218.1
2016-May-29 09:33N 35°57' W 005°27'64016.2
2016-May-27 18:09N 29°12' W 015°15'1016.9
2016-May-27 17:32N 29°05' W 015°24'1616.5
2016-May-27 16:33N 28°54' W 015°38'1616.1
2016-May-27 15:33N 28°42' W 015°50'1313.4
2016-May-27 14:33N 28°33' W 016°02'1211.3
2016-May-27 13:31N 28°29' W 016°14'1 0.3
2016-May-27 11:27N 28°29' W 016°13'0 0.0
2016-May-27 05:15N 28°29' W 016°13'1 1.0
2016-May-27 04:33N 28°29' W 016°14'8 8.1
2016-May-27 03:33N 28°26' W 016°05'8 8.5
2016-May-27 02:33N 28°23' W 015°56'8 8.1
2016-May-27 01:33N 28°19' W 015°48'8 7.9
2016-May-27 00:33N 28°17' W 015°39'8 7.4
2016-May-26 23:33N 28°14' W 015°31'7 7.2
2016-May-26 22:33N 28°12' W 015°24'5 4.5
2016-May-26 21:33N 28°08' W 015°25'0 0.2
2016-May-26 20:34N 28°08' W 015°25'0 0.0
2016-May-26 19:33N 28°08' W 015°25'0 0.0
2016-May-26 18:33N 28°08' W 015°25'0 0.0
2016-May-26 17:33N 28°08' W 015°25'0 0.0
2016-May-26 16:33N 28°08' W 015°25'0 0.0
2016-May-26 15:33N 28°08' W 015°25'0 0.0
2016-May-26 14:33N 28°08' W 015°25'0 0.0
2016-May-26 13:33N 28°08' W 015°25'0 0.0
2016-May-26 12:33N 28°08' W 015°25'0 0.0
2016-May-26 11:33N 28°08' W 015°25'0 0.0
2016-May-26 10:33N 28°08' W 015°25'0 0.0
2016-May-26 09:24N 28°08' W 015°25'0 0.0
2016-May-26 08:24N 28°08' W 015°25'0 0.0
2016-May-26 07:27N 28°08' W 015°25'0 0.0
2016-May-26 06:27N 28°08' W 015°25'0 0.0
2016-May-26 05:27N 28°08' W 015°25'0 0.0
2016-May-26 04:27N 28°08' W 015°25'0 0.0
2016-May-26 03:27N 28°08' W 015°25'0 0.0
2016-May-26 02:30N 28°08' W 015°25'0 0.0
2016-May-26 01:30N 28°08' W 015°25'0 0.0
2016-May-26 00:30N 28°08' W 015°25'2 1.8
2016-May-25 23:34N 28°07' W 015°23'1 1.0
2016-May-25 22:33N 28°08' W 015°22'0 0.4
2016-May-25 21:34N 28°08' W 015°22'0 0.4
2016-May-25 20:34N 28°08' W 015°22'9 9.2
2016-May-25 19:34N 28°13' W 015°13'1616.2
2016-May-25 18:33N 28°22' W 014°57'1615.9
2016-May-25 17:33N 28°29' W 014°41'2416.3
2016-May-25 16:05N 28°40' W 014°17'916.2
2016-May-25 15:32N 28°44' W 014°08'1414.7
2016-May-25 14:33N 28°48' W 013°52'1515.0
2016-May-25 13:33N 28°54' W 013°36'6 5.2
2016-May-25 12:28N 28°58' W 013°32'0 0.0
2016-May-25 11:28N 28°58' W 013°32'0 0.0
2016-May-25 10:04N 28°58' W 013°32'0 0.0
2016-May-25 09:28N 28°58' W 013°32'41 6.8
2016-May-25 03:26N 28°41' W 014°15'1416.6
2016-May-25 02:33N 28°34' W 014°29'1616.3
2016-May-25 01:33N 28°26' W 014°45'1616.2
2016-May-25 00:33N 28°19' W 015°02'1616.0
2016-May-24 23:33N 28°10' W 015°17'8 7.0
2016-May-24 22:29N 28°08' W 015°25'0 0.0
2016-May-24 21:32N 28°08' W 015°25'0 0.0
2016-May-24 20:32N 28°08' W 015°25'0 0.0
2016-May-24 19:32N 28°08' W 015°25'0 0.0
2016-May-24 18:29N 28°08' W 015°25'0 0.0
2016-May-24 17:32N 28°08' W 015°25'3 2.9
2016-May-24 16:33N 28°10' W 015°23'1514.9
2016-May-24 15:34N 28°14' W 015°39'1615.7
2016-May-24 14:33N 28°16' W 015°57'1615.8
2016-May-24 13:33N 28°26' W 016°11'4 0.7
2016-May-24 08:13N 28°29' W 016°13'0 0.0
2016-May-24 07:04N 28°29' W 016°13'0 0.0
2016-May-24 06:33N 28°29' W 016°13'6 6.5
2016-May-24 05:33N 28°31' W 016°06'1717.1
2016-May-24 04:33N 28°42' W 015°51'1717.2
2016-May-24 03:33N 28°53' W 015°37'1716.8
2016-May-24 02:33N 29°04' W 015°22'1616.4
2016-May-24 01:33N 29°15' W 015°08'2516.8
2016-May-24 00:03N 29°31' W 014°45'816.9
2016-May-23 23:34N 29°36' W 014°38'1716.5
2016-May-23 22:33N 29°47' W 014°24'4116.6
2016-May-23 20:06N 30°14' W 013°48'1116.8
2016-May-23 19:27N 30°21' W 013°39'1516.8
2016-May-23 18:34N 30°31' W 013°26'1716.8
2016-May-23 17:32N 30°42' W 013°10'1716.5
2016-May-23 16:31N 30°53' W 012°56'15016.6
2016-May-23 07:28N 32°31' W 010°42'33116.6
2016-May-22 11:33N 35°59' W 005°31'19115.8
2016-May-21 23:31N 36°46' W 001°42'1616.6
2016-May-21 22:34N 36°57' W 001°27'1716.5
2016-May-21 21:32N 37°08' W 001°11'1616.5
2016-May-21 20:33N 37°19' W 000°56'1716.6
2016-May-21 19:33N 37°30' W 000°40'1515.6
2016-May-21 18:34N 37°43' W 000°30'1716.6
2016-May-21 17:33N 37°59' W 000°25'1515.3
2016-May-21 16:33N 38°14' W 000°26'4 0.6
2016-May-21 09:04N 38°19' W 000°27'813.3
2016-May-21 08:29N 38°21' W 000°17'1516.6
2016-May-21 07:33N 38°29' W 000°01'3216.0
2016-May-21 05:33N 38°51' E 000°29'6816.8
2016-May-21 01:31N 39°51' E 001°10'1616.5
2016-May-21 00:33N 40°05' E 001°20'1716.6
2016-May-20 23:33N 40°19' E 001°31'1716.9
2016-May-20 22:33N 40°34' E 001°41'1817.1
2016-May-20 21:29N 40°50' E 001°52'1516.4
2016-May-20 20:33N 41°04' E 002°02'1615.9
2016-May-20 19:33N 41°18' E 002°10'3 1.3
2016-May-20 17:24N 41°21' E 002°10'  
Track history (hours):
 
Tides and Currents Weather Stations Pressure Air Temp Water Temp Dewpoint Dewpoint Depression Visibility Wind Speed Wind Dir Waves Ship Positions

Neuburg

Last reported at 2016-May-30 03:33 UTC. Time now 2016-May-30 16:28 UTC.
Position N 38°02' W 000°23'.

Length 142 m; draft 6.2 m.

Type: Cargo ship. MMSI: 212740000.

Date/timePositionNaut miles runAvg speedWind from/ knotsBaromVisibWave heightAir tempDewpointWater temp
2016-May-30 03:33N 38°02' W 000°23'1515.0
2016-May-30 02:33N 37°47' W 000°27'1615.7
2016-May-30 01:33N 37°32' W 000°32'1616.1
2016-May-30 00:33N 37°21' W 000°47'1616.0
2016-May-29 23:33N 37°10' W 001°02'21316.0
2016-May-29 10:15N 35°60' W 005°12'1218.1
2016-May-29 09:33N 35°57' W 005°27'64016.2
2016-May-27 18:09N 29°12' W 015°15'1016.9
2016-May-27 17:32N 29°05' W 015°24'1616.5
2016-May-27 16:33N 28°54' W 015°38'1616.1
2016-May-27 15:33N 28°42' W 015°50'1313.4
2016-May-27 14:33N 28°33' W 016°02'1211.3
2016-May-27 13:31N 28°29' W 016°14'1 0.3
2016-May-27 11:27N 28°29' W 016°13'0 0.0
2016-May-27 05:15N 28°29' W 016°13'1 1.0
2016-May-27 04:33N 28°29' W 016°14'8 8.1
2016-May-27 03:33N 28°26' W 016°05'8 8.5
2016-May-27 02:33N 28°23' W 015°56'8 8.1
2016-May-27 01:33N 28°19' W 015°48'8 7.9
2016-May-27 00:33N 28°17' W 015°39'8 7.4
2016-May-26 23:33N 28°14' W 015°31'7 7.2
2016-May-26 22:33N 28°12' W 015°24'5 4.5
2016-May-26 21:33N 28°08' W 015°25'0 0.2
2016-May-26 20:34N 28°08' W 015°25'0 0.0
2016-May-26 19:33N 28°08' W 015°25'0 0.0
2016-May-26 18:33N 28°08' W 015°25'0 0.0
2016-May-26 17:33N 28°08' W 015°25'0 0.0
2016-May-26 16:33N 28°08' W 015°25'0 0.0
2016-May-26 15:33N 28°08' W 015°25'0 0.0
2016-May-26 14:33N 28°08' W 015°25'0 0.0
2016-May-26 13:33N 28°08' W 015°25'0 0.0
2016-May-26 12:33N 28°08' W 015°25'0 0.0
2016-May-26 11:33N 28°08' W 015°25'0 0.0
2016-May-26 10:33N 28°08' W 015°25'0 0.0
2016-May-26 09:24N 28°08' W 015°25'0 0.0
2016-May-26 08:24N 28°08' W 015°25'0 0.0
2016-May-26 07:27N 28°08' W 015°25'0 0.0
2016-May-26 06:27N 28°08' W 015°25'0 0.0
2016-May-26 05:27N 28°08' W 015°25'0 0.0
2016-May-26 04:27N 28°08' W 015°25'0 0.0
2016-May-26 03:27N 28°08' W 015°25'0 0.0
2016-May-26 02:30N 28°08' W 015°25'0 0.0
2016-May-26 01:30N 28°08' W 015°25'0 0.0
2016-May-26 00:30N 28°08' W 015°25'2 1.8
2016-May-25 23:34N 28°07' W 015°23'1 1.0
2016-May-25 22:33N 28°08' W 015°22'0 0.4
2016-May-25 21:34N 28°08' W 015°22'0 0.4
2016-May-25 20:34N 28°08' W 015°22'9 9.2
2016-May-25 19:34N 28°13' W 015°13'1616.2
2016-May-25 18:33N 28°22' W 014°57'1615.9
2016-May-25 17:33N 28°29' W 014°41'2416.3
2016-May-25 16:05N 28°40' W 014°17'916.2
2016-May-25 15:32N 28°44' W 014°08'1414.7
2016-May-25 14:33N 28°48' W 013°52'1515.0
2016-May-25 13:33N 28°54' W 013°36'6 5.2
2016-May-25 12:28N 28°58' W 013°32'0 0.0
2016-May-25 11:28N 28°58' W 013°32'0 0.0
2016-May-25 10:04N 28°58' W 013°32'0 0.0
2016-May-25 09:28N 28°58' W 013°32'41 6.8
2016-May-25 03:26N 28°41' W 014°15'1416.6
2016-May-25 02:33N 28°34' W 014°29'1616.3
2016-May-25 01:33N 28°26' W 014°45'1616.2
2016-May-25 00:33N 28°19' W 015°02'1616.0
2016-May-24 23:33N 28°10' W 015°17'8 7.0
2016-May-24 22:29N 28°08' W 015°25'0 0.0
2016-May-24 21:32N 28°08' W 015°25'0 0.0
2016-May-24 20:32N 28°08' W 015°25'0 0.0
2016-May-24 19:32N 28°08' W 015°25'0 0.0
2016-May-24 18:29N 28°08' W 015°25'0 0.0
2016-May-24 17:32N 28°08' W 015°25'3 2.9
2016-May-24 16:33N 28°10' W 015°23'1514.9
2016-May-24 15:34N 28°14' W 015°39'1615.7
2016-May-24 14:33N 28°16' W 015°57'1615.8
2016-May-24 13:33N 28°26' W 016°11'4 0.7
2016-May-24 08:13N 28°29' W 016°13'0 0.0
2016-May-24 07:04N 28°29' W 016°13'0 0.0
2016-May-24 06:33N 28°29' W 016°13'6 6.5
2016-May-24 05:33N 28°31' W 016°06'1717.1
2016-May-24 04:33N 28°42' W 015°51'1717.2
2016-May-24 03:33N 28°53' W 015°37'1716.8
2016-May-24 02:33N 29°04' W 015°22'1616.4
2016-May-24 01:33N 29°15' W 015°08'2516.8
2016-May-24 00:03N 29°31' W 014°45'816.9
2016-May-23 23:34N 29°36' W 014°38'1716.5
2016-May-23 22:33N 29°47' W 014°24'4116.6
2016-May-23 20:06N 30°14' W 013°48'1116.8
2016-May-23 19:27N 30°21' W 013°39'1516.8
2016-May-23 18:34N 30°31' W 013°26'1716.8
2016-May-23 17:32N 30°42' W 013°10'1716.5
2016-May-23 16:31N 30°53' W 012°56'15016.6
2016-May-23 07:28N 32°31' W 010°42'33116.6
2016-May-22 11:33N 35°59' W 005°31'19115.8
2016-May-21 23:31N 36°46' W 001°42'1616.6
2016-May-21 22:34N 36°57' W 001°27'1716.5
2016-May-21 21:32N 37°08' W 001°11'1616.5
2016-May-21 20:33N 37°19' W 000°56'1716.6
2016-May-21 19:33N 37°30' W 000°40'1515.6
2016-May-21 18:34N 37°43' W 000°30'1716.6
2016-May-21 17:33N 37°59' W 000°25'1515.3
2016-May-21 16:33N 38°14' W 000°26'4 0.6
2016-May-21 09:04N 38°19' W 000°27'813.3
2016-May-21 08:29N 38°21' W 000°17'1516.6
2016-May-21 07:33N 38°29' W 000°01'3216.0
2016-May-21 05:33N 38°51' E 000°29'6816.8
2016-May-21 01:31N 39°51' E 001°10'1616.5
2016-May-21 00:33N 40°05' E 001°20'1716.6
2016-May-20 23:33N 40°19' E 001°31'1716.9
2016-May-20 22:33N 40°34' E 001°41'1817.1
2016-May-20 21:29N 40°50' E 001°52'1516.4
2016-May-20 20:33N 41°04' E 002°02'1615.9
2016-May-20 19:33N 41°18' E 002°10'3 1.3
2016-May-20 17:24N 41°21' E 002°10'  

Dump ship's entire track history